Time;durP1;ratioP1;P1;durP2;ratioP2;P2;SDS_P1;SDS_P2;PMS_P1;PMS_P2;Temp;Humidity;BMP_temperature;BMP_pressure;BME280_temperature;BME280_humidity;BME280_pressure;Samples;Min_cycle;Max_cycle;Signal;HPM_P1;HPM_P2
2021/11/12 00:02:19;;;;;;;52.30;25.97;;;7.50;99.90;;;;;;5007470;28;20243;-72
2021/11/12 00:13:07;;;;;;;61.87;28.17;;;7.50;99.90;;;;;;5007564;28;20849;-72
2021/11/12 00:15:42;;;;;;;62.03;28.10;;;7.50;99.90;;;;;;5007688;28;20201;-71
2021/11/12 00:18:09;;;;;;;59.67;28.30;;;7.50;99.90;;;;;;5007559;28;20217;-71
2021/11/12 00:20:36;;;;;;;60.87;29.67;;;7.50;99.90;;;;;;5007554;28;20228;-72
2021/11/12 00:23:03;;;;;;;59.60;27.87;;;7.50;99.90;;;;;;5007725;28;20553;-72
2021/11/12 00:25:29;;;;;;;65.00;28.20;;;7.50;99.90;;;;;;5007432;28;20237;-72
2021/11/12 00:27:56;;;;;;;59.37;26.43;;;7.50;99.90;;;;;;5006989;28;20824;-72
2021/11/12 00:30:32;;;;;;;54.73;27.73;;;7.50;99.90;;;;;;5007533;28;20236;-72
2021/11/12 00:33:07;;;;;;;57.97;27.00;;;7.50;99.90;;;;;;5007284;28;20225;-72
2021/11/12 00:35:39;;;;;;;60.73;28.07;;;7.50;99.90;;;;;;5007240;28;20228;-72
2021/11/12 00:38:11;;;;;;;59.83;27.57;;;7.50;99.90;;;;;;5007283;28;20206;-72
2021/11/12 00:40:48;;;;;;;59.40;27.93;;;7.50;99.90;;;;;;5006941;28;20262;-72
2021/11/12 00:43:26;;;;;;;62.67;27.77;;;7.50;99.90;;;;;;5007017;28;20602;-72
2021/11/12 00:46:00;;;;;;;61.40;28.27;;;7.50;99.90;;;;;;5007107;28;20221;-72
2021/11/12 00:48:32;;;;;;;58.00;27.17;;;7.50;99.90;;;;;;5007252;28;20201;-74
2021/11/12 00:51:10;;;;;;;61.13;27.23;;;7.50;99.90;;;;;;5007246;28;20229;-73
2021/11/12 00:53:53;;;;;;;58.27;27.63;;;7.60;99.90;;;;;;5006610;28;20201;-73
2021/11/12 00:56:23;;;;;;;55.00;26.80;;;7.60;99.90;;;;;;5006879;28;20243;-73
2021/11/12 00:58:50;;;;;;;55.47;26.60;;;7.60;99.90;;;;;;5006327;28;20212;-73
2021/11/12 01:01:18;;;;;;;55.67;27.33;;;7.60;99.90;;;;;;5006416;28;20275;-73
2021/11/12 01:03:47;;;;;;;63.87;27.33;;;7.60;99.90;;;;;;5006708;28;20214;-73
2021/11/12 01:06:14;;;;;;;63.23;27.73;;;7.60;99.90;;;;;;5006230;28;20229;-73
2021/11/12 01:08:41;;;;;;;59.53;26.87;;;7.60;99.90;;;;;;5006957;28;20275;-73
2021/11/12 01:11:07;;;;;;;55.77;27.23;;;7.50;99.90;;;;;;5006324;28;20668;-73
2021/11/12 01:13:35;;;;;;;58.93;26.47;;;7.60;99.90;;;;;;5006635;28;20304;-73
2021/11/12 01:16:03;;;;;;;52.70;25.67;;;7.60;99.90;;;;;;5006411;28;20579;-73
2021/11/12 01:18:29;;;;;;;54.07;25.47;;;7.60;99.90;;;;;;5006573;28;20884;-73
2021/11/12 01:20:58;;;;;;;61.17;26.47;;;7.60;99.90;;;;;;5005356;28;20258;-73
2021/11/12 01:23:24;;;;;;;56.63;25.80;;;7.60;99.90;;;;;;5006618;28;20732;-73
2021/11/12 01:25:51;;;;;;;55.33;25.63;;;7.60;99.90;;;;;;5006511;28;20233;-72
2021/11/12 01:28:19;;;;;;;53.60;24.83;;;7.60;99.90;;;;;;5006225;28;20261;-72
2021/11/12 01:30:45;;;;;;;56.87;25.47;;;7.60;99.90;;;;;;5006499;28;20209;-72
2021/11/12 01:33:12;;;;;;;51.20;23.13;;;7.60;99.90;;;;;;5006538;28;20265;-71
2021/11/12 01:35:39;;;;;;;53.90;22.80;;;7.60;99.90;;;;;;5006530;28;20214;-72
2021/11/12 01:38:07;;;;;;;48.70;23.60;;;7.60;99.90;;;;;;5006240;28;20201;-71
2021/11/12 01:40:33;;;;;;;51.60;23.67;;;7.60;99.90;;;;;;5005902;28;20552;-72
2021/11/12 01:43:08;;;;;;;47.87;23.33;;;7.60;99.90;;;;;;5005921;28;20220;-71
2021/11/12 01:48:31;;;;;;;48.23;21.77;;;7.70;99.90;;;;;;5005924;28;20644;-72
2021/11/12 01:51:03;;;;;;;48.13;24.30;;;7.70;99.90;;;;;;5006135;28;20266;-73
2021/11/12 01:53:35;;;;;;;56.03;24.20;;;7.70;99.90;;;;;;5006369;28;20202;-72
2021/11/12 02:01:32;;;;;;;57.07;24.97;;;7.60;99.90;;;;;;5018373;28;20244;-72
2021/11/12 02:03:58;;;;;;;55.07;24.53;;;7.60;99.90;;;;;;5005982;28;20240;-71
2021/11/12 02:06:25;;;;;;;48.63;23.60;;;7.60;99.90;;;;;;5006045;28;20318;-71
2021/11/12 02:08:54;;;;;;;50.07;23.47;;;7.70;99.90;;;;;;5005614;28;20959;-72
2021/11/12 02:11:21;;;;;;;52.77;24.40;;;7.70;99.90;;;;;;5005936;28;20236;-72
2021/11/12 02:13:49;;;;;;;49.30;23.50;;;7.70;99.90;;;;;;5005543;28;20220;-71
2021/11/12 02:16:22;;;;;;;56.17;24.67;;;7.70;99.90;;;;;;5005837;28;20214;-71
2021/11/12 02:18:49;;;;;;;53.97;24.93;;;7.70;99.90;;;;;;5005780;28;20241;-71
2021/11/12 02:21:24;;;;;;;53.97;24.77;;;7.60;99.90;;;;;;5005977;28;20229;-71
2021/11/12 02:23:57;;;;;;;59.47;25.87;;;7.60;99.90;;;;;;5005837;28;20258;-72
2021/11/12 02:26:27;;;;;;;57.63;23.53;;;7.60;99.90;;;;;;5005384;28;20699;-71
2021/11/12 02:28:56;;;;;;;52.30;25.07;;;7.60;99.90;;;;;;5005264;28;20229;-72
2021/11/12 02:31:26;;;;;;;56.73;24.60;;;7.60;99.90;;;;;;5005631;28;20240;-71
2021/11/12 02:33:53;;;;;;;54.97;24.77;;;7.60;99.90;;;;;;5009035;28;20357;-72
2021/11/12 02:36:21;;;;;;;55.17;23.03;;;7.60;99.90;;;;;;5009233;28;20205;-71
2021/11/12 02:38:51;;;;;;;50.40;23.30;;;7.70;99.90;;;;;;5009048;28;20216;-72
2021/11/12 02:41:18;;;;;;;53.37;23.93;;;7.60;99.90;;;;;;5009111;28;20209;-72
2021/11/12 02:43:49;;;;;;;52.00;22.90;;;7.60;99.90;;;;;;5008964;28;20266;-72
2021/11/12 02:46:18;;;;;;;54.00;24.20;;;7.60;99.90;;;;;;5008973;28;20256;-72
2021/11/12 02:48:45;;;;;;;53.97;23.60;;;7.60;99.90;;;;;;5008714;28;20277;-72
2021/11/12 02:51:17;;;;;;;55.43;24.07;;;7.60;99.90;;;;;;5008075;28;20241;-72
2021/11/12 02:53:47;;;;;;;51.33;22.47;;;7.60;99.90;;;;;;5008728;28;20258;-74
2021/11/12 02:56:23;;;;;;;52.07;22.63;;;7.70;99.90;;;;;;5008924;28;20252;-72
2021/11/12 02:58:51;;;;;;;46.13;21.30;;;7.70;99.90;;;;;;5008788;28;20258;-72
2021/11/12 03:01:18;;;;;;;47.40;22.50;;;7.70;99.90;;;;;;5008463;28;20290;-72
2021/11/12 03:03:44;;;;;;;48.20;21.80;;;7.70;99.90;;;;;;5008602;28;20256;-71
2021/11/12 03:06:11;;;;;;;45.17;22.33;;;7.70;99.90;;;;;;5008223;28;20245;-73
2021/11/12 03:08:38;;;;;;;42.90;21.67;;;7.70;99.90;;;;;;5008501;28;20209;-73
2021/11/12 03:11:07;;;;;;;51.57;22.60;;;7.70;99.90;;;;;;5008618;28;20252;-73
2021/11/12 03:13:34;;;;;;;47.10;22.63;;;7.70;99.90;;;;;;5008144;28;20254;-73
2021/11/12 03:16:01;;;;;;;44.53;22.13;;;7.70;99.90;;;;;;5008626;28;20659;-71
2021/11/12 03:18:29;;;;;;;42.83;21.97;;;7.70;99.90;;;;;;5008311;28;20262;-71
2021/11/12 03:20:56;;;;;;;45.37;21.77;;;7.70;99.90;;;;;;5008390;28;20297;-70
2021/11/12 03:23:26;;;;;;;49.43;22.80;;;7.70;99.90;;;;;;5008178;28;20790;-70
2021/11/12 03:26:04;;;;;;;44.37;22.20;;;7.80;99.90;;;;;;5007838;28;20332;-70
2021/11/12 03:28:48;;;;;;;45.43;22.27;;;7.80;99.90;;;;;;5008056;28;20235;-70
2021/11/12 04:01:34;;;;;;;51.13;22.20;;;7.70;99.90;;;;;;5022557;28;20705;-70
2021/11/12 04:04:12;;;;;;;49.00;21.60;;;7.80;99.90;;;;;;5023523;27;20201;-70
2021/11/12 04:06:45;;;;;;;58.37;23.43;;;7.70;99.90;;;;;;5023062;28;20294;-70
2021/11/12 04:40:09;;;;;;;63.87;24.43;;;7.70;99.90;;;;;;5022444;28;20219;-70
2021/11/12 05:10:09;;;;;;;67.27;24.17;;;7.70;99.90;;;;;;5013130;28;20617;-70
2021/11/12 05:12:55;;;;;;;66.50;23.13;;;7.80;99.90;;;;;;5015890;28;20262;-70
2021/11/12 05:34:45;;;;;;;58.87;23.57;;;7.80;99.90;;;;;;5015594;28;20571;-70
2021/11/12 05:45:33;;;;;;;55.13;23.43;;;7.90;99.90;;;;;;5012765;28;20245;-70
2021/11/12 05:50:59;;;;;;;54.33;23.20;;;7.80;99.90;;;;;;5012686;28;20805;-71
2021/11/12 05:56:11;;;;;;;54.33;23.90;;;7.80;99.90;;;;;;5014413;28;20764;-70
2021/11/12 05:58:37;;;;;;;59.83;24.77;;;7.90;99.90;;;;;;5013437;28;20263;-71
2021/11/12 06:01:05;;;;;;;59.67;24.73;;;7.90;99.90;;;;;;5012949;28;20225;-70
2021/11/12 06:03:32;;;;;;;60.43;25.37;;;7.90;99.90;;;;;;5016243;28;20233;-70
2021/11/12 06:05:59;;;;;;;59.27;25.33;;;7.90;99.90;;;;;;5015869;28;20278;-70
2021/11/12 06:08:25;;;;;;;59.37;25.77;;;7.90;99.90;;;;;;5004348;28;20206;-70
2021/11/12 06:10:52;;;;;;;63.30;26.10;;;7.90;99.90;;;;;;5006230;28;20623;-71
2021/11/12 06:13:20;;;;;;;61.80;25.00;;;7.90;99.90;;;;;;5018887;28;20197;-71
2021/11/12 06:15:47;;;;;;;61.87;24.93;;;7.90;99.90;;;;;;5008452;28;20215;-71
2021/11/12 06:18:14;;;;;;;61.83;25.53;;;7.90;99.90;;;;;;5014510;28;20197;-70
2021/11/12 06:20:41;;;;;;;69.83;26.87;;;7.90;99.90;;;;;;5012551;28;20206;-70
2021/11/12 06:23:07;;;;;;;58.93;23.53;;;7.90;99.90;;;;;;5014726;28;20663;-70
2021/11/12 06:25:34;;;;;;;66.47;25.43;;;7.90;99.90;;;;;;5017102;28;20280;-71
2021/11/12 06:28:00;;;;;;;62.57;24.13;;;7.90;99.90;;;;;;5018028;28;20725;-70
2021/11/12 06:30:28;;;;;;;67.77;25.47;;;7.90;99.90;;;;;;5012343;28;20433;-70
2021/11/12 06:32:55;;;;;;;61.00;25.00;;;7.90;99.90;;;;;;5015234;28;20735;-70
2021/11/12 06:35:22;;;;;;;64.20;25.23;;;7.90;99.90;;;;;;5015532;28;20205;-70
2021/11/12 06:37:48;;;;;;;63.17;25.30;;;7.90;99.90;;;;;;5015355;28;20205;-70
2021/11/12 06:40:19;;;;;;;59.33;23.80;;;7.90;99.90;;;;;;5015421;28;20237;-70
2021/11/12 06:43:01;;;;;;;61.03;24.53;;;7.90;99.90;;;;;;5013323;28;20186;-70
2021/11/12 06:50:57;;;;;;;58.57;24.00;;;7.80;99.90;;;;;;5014701;28;20286;-70
2021/11/12 06:53:24;;;;;;;55.87;24.90;;;7.80;99.90;;;;;;5015220;28;20204;-70
2021/11/12 06:55:53;;;;;;;58.13;23.40;;;7.90;99.90;;;;;;5014108;28;20216;-70
2021/11/12 06:58:19;;;;;;;55.73;22.77;;;7.90;99.90;;;;;;5012419;28;20288;-70
2021/11/12 07:00:48;;;;;;;51.53;22.23;;;7.80;99.90;;;;;;5011979;28;20229;-70
2021/11/12 07:03:14;;;;;;;52.93;22.70;;;7.90;99.90;;;;;;5019979;28;20209;-70
2021/11/12 07:05:41;;;;;;;48.73;21.47;;;7.90;99.90;;;;;;5015238;28;20274;-70
2021/11/12 07:08:08;;;;;;;52.80;21.47;;;7.90;99.90;;;;;;5012761;28;20276;-70
2021/11/12 07:10:34;;;;;;;52.87;23.73;;;7.90;99.90;;;;;;5015173;28;20202;-73
2021/11/12 07:13:01;;;;;;;49.43;22.03;;;7.90;99.90;;;;;;5012418;28;20217;-73
2021/11/12 07:15:27;;;;;;;51.27;23.17;;;8.00;99.90;;;;;;5014221;28;20197;-73
2021/11/12 07:17:55;;;;;;;45.17;21.87;;;8.00;99.90;;;;;;5012528;28;20263;-71
2021/11/12 07:20:22;;;;;;;50.70;21.77;;;8.00;99.90;;;;;;5021543;28;20205;-71
2021/11/12 07:22:49;;;;;;;51.83;22.07;;;8.00;99.90;;;;;;5027830;28;20205;-70
2021/11/12 07:25:15;;;;;;;50.57;21.40;;;7.90;99.90;;;;;;5027763;28;20212;-70
2021/11/12 07:27:42;;;;;;;51.77;22.93;;;7.90;99.90;;;;;;5027062;28;20245;-70
2021/11/12 07:30:13;;;;;;;60.57;23.80;;;7.90;99.90;;;;;;5027747;28;20232;-70
2021/11/12 07:32:41;;;;;;;55.73;23.80;;;7.90;99.90;;;;;;5026877;28;20583;-70
2021/11/12 07:35:11;;;;;;;49.37;21.57;;;7.90;99.90;;;;;;5016481;28;20208;-70
2021/11/12 07:37:38;;;;;;;52.03;22.57;;;8.00;99.90;;;;;;5018130;28;20663;-70
2021/11/12 07:40:10;;;;;;;50.30;22.20;;;8.00;99.90;;;;;;5018320;28;20575;-70
2021/11/12 07:42:51;;;;;;;43.60;20.57;;;8.00;99.90;;;;;;5018041;28;20197;-70
2021/11/12 07:45:29;;;;;;;45.97;20.83;;;8.00;99.90;;;;;;5018010;28;20197;-70
2021/11/12 07:47:56;;;;;;;47.47;21.93;;;7.90;99.90;;;;;;5012642;28;20225;-70
2021/11/12 07:50:24;;;;;;;42.53;20.13;;;8.00;99.90;;;;;;5021391;28;20271;-70
2021/11/12 07:52:51;;;;;;;40.50;20.13;;;7.90;99.90;;;;;;5015689;28;20209;-71
2021/11/12 07:55:17;;;;;;;41.73;20.27;;;8.00;99.90;;;;;;5014774;28;20201;-71
2021/11/12 07:57:44;;;;;;;39.73;19.80;;;7.90;99.90;;;;;;5017468;28;20337;-71
2021/11/12 08:00:11;;;;;;;37.73;19.67;;;7.90;99.90;;;;;;5017432;28;20241;-71
2021/11/12 08:02:38;;;;;;;40.30;19.60;;;8.00;99.90;;;;;;5012514;28;20246;-71
2021/11/12 08:05:12;;;;;;;37.73;19.33;;;8.00;99.90;;;;;;5018278;28;20202;-71
2021/11/12 08:07:41;;;;;;;39.60;19.90;;;8.00;99.90;;;;;;5021036;28;20249;-71
2021/11/12 08:10:11;;;;;;;38.70;19.77;;;7.90;99.90;;;;;;5027317;28;20212;-71
2021/11/12 08:12:41;;;;;;;47.30;22.10;;;8.00;99.90;;;;;;5026709;28;20547;-71
2021/11/12 08:15:29;;;;;;;43.33;22.00;;;8.00;99.90;;;;;;5026952;28;20299;-71
2021/11/12 08:18:06;;;;;;;40.60;21.43;;;8.00;99.90;;;;;;5026645;28;20262;-71
2021/11/12 08:20:36;;;;;;;46.83;21.87;;;8.00;99.90;;;;;;5027297;28;20234;-71
2021/11/12 08:23:11;;;;;;;42.53;21.77;;;8.00;99.90;;;;;;5027022;28;20207;-71
2021/11/12 08:25:42;;;;;;;42.80;21.23;;;8.00;99.90;;;;;;5026951;28;20192;-71
2021/11/12 08:28:21;;;;;;;40.57;21.07;;;8.00;99.90;;;;;;5026116;28;20246;-71
2021/11/12 08:31:11;;;;;;;41.80;21.93;;;8.00;99.90;;;;;;5026264;28;20228;-74
2021/11/12 08:33:44;;;;;;;39.10;24.00;;;8.00;99.90;;;;;;5026470;28;20284;-73
2021/11/12 08:36:30;;;;;;;44.83;24.63;;;8.00;99.90;;;;;;5027044;28;20251;-74
2021/11/12 08:39:07;;;;;;;41.73;23.17;;;8.10;99.90;;;;;;5020411;28;20198;-71
2021/11/12 08:41:38;;;;;;;43.07;22.70;;;8.10;99.90;;;;;;5012904;28;20703;-71
2021/11/12 08:44:11;;;;;;;41.13;22.03;;;8.10;99.90;;;;;;5014204;28;20196;-71
2021/11/12 08:46:44;;;;;;;38.37;21.13;;;8.10;99.90;;;;;;5015721;28;20220;-71
2021/11/12 08:49:13;;;;;;;41.83;21.90;;;8.10;99.90;;;;;;5014756;28;20759;-71
2021/11/12 08:51:41;;;;;;;41.50;22.23;;;8.10;99.90;;;;;;5014399;28;20659;-71
2021/11/12 08:54:10;;;;;;;43.80;23.77;;;8.20;99.90;;;;;;5014259;28;20911;-71
2021/11/12 08:56:38;;;;;;;39.33;22.33;;;8.20;99.90;;;;;;5017224;28;20205;-71
2021/11/12 08:59:06;;;;;;;41.77;21.73;;;8.20;99.90;;;;;;5016748;28;20235;-71
2021/11/12 09:01:34;;;;;;;40.13;21.57;;;8.20;99.90;;;;;;5015057;28;20584;-71
2021/11/12 09:04:00;;;;;;;38.07;21.40;;;8.20;99.90;;;;;;5017280;28;20201;-71
2021/11/12 09:06:27;;;;;;;37.67;21.60;;;8.30;99.90;;;;;;5015714;28;20236;-71
2021/11/12 09:08:54;;;;;;;34.10;20.53;;;8.30;99.90;;;;;;5014792;28;20209;-71
2021/11/12 09:11:22;;;;;;;31.40;19.37;;;8.30;99.90;;;;;;5016300;28;20619;-71
2021/11/12 09:13:51;;;;;;;39.53;21.50;;;8.30;99.90;;;;;;5005456;28;20233;-71
2021/11/12 09:16:19;;;;;;;36.67;20.13;;;8.30;99.90;;;;;;5015786;28;20198;-71
2021/11/12 09:18:48;;;;;;;42.10;21.13;;;8.40;99.90;;;;;;5014286;28;20193;-71
2021/11/12 09:21:18;;;;;;;35.00;21.00;;;8.40;99.90;;;;;;5014570;28;20272;-71
2021/11/12 09:23:45;;;;;;;40.70;21.27;;;8.40;99.90;;;;;;5013720;28;20205;-71
2021/11/12 09:26:12;;;;;;;40.03;21.87;;;8.40;99.90;;;;;;5017603;28;20201;-71
2021/11/12 09:28:43;;;;;;;38.03;20.97;;;8.40;99.90;;;;;;5016023;28;20229;-71
2021/11/12 09:31:10;;;;;;;37.77;20.97;;;8.40;99.90;;;;;;5016963;28;20303;-71
2021/11/12 09:33:39;;;;;;;36.57;20.47;;;8.40;99.90;;;;;;5014384;28;20806;-71
2021/11/12 09:36:08;;;;;;;37.50;20.23;;;8.50;99.90;;;;;;5016198;28;20570;-71
2021/11/12 09:38:35;;;;;;;31.10;18.07;;;8.50;99.90;;;;;;5014826;28;20205;-71
2021/11/12 09:41:02;;;;;;;29.23;17.90;;;8.50;99.90;;;;;;5012912;28;20247;-71
2021/11/12 09:43:29;;;;;;;30.90;19.20;;;8.50;99.90;;;;;;5013748;28;20601;-71
2021/11/12 09:45:57;;;;;;;31.73;19.43;;;8.50;99.90;;;;;;5015822;28;20205;-71
2021/11/12 09:48:24;;;;;;;31.17;18.50;;;8.50;99.90;;;;;;5013220;28;20900;-71
2021/11/12 09:50:52;;;;;;;34.67;20.10;;;8.50;99.90;;;;;;5015127;28;20224;-71
2021/11/12 09:53:19;;;;;;;35.20;20.67;;;8.60;99.90;;;;;;5010032;28;20202;-71
2021/11/12 09:55:47;;;;;;;34.27;20.80;;;8.60;99.90;;;;;;5015927;28;20274;-71
2021/11/12 09:58:15;;;;;;;33.80;19.57;;;8.60;99.90;;;;;;5013415;28;20205;-71
2021/11/12 10:00:42;;;;;;;34.67;21.33;;;8.60;99.90;;;;;;5015732;28;20778;-71
2021/11/12 10:03:10;;;;;;;34.20;21.33;;;8.60;99.90;;;;;;5018516;28;20197;-75
2021/11/12 10:05:40;;;;;;;37.37;22.20;;;8.60;99.90;;;;;;5013008;28;20224;-75
2021/11/12 10:08:26;;;;;;;36.90;21.57;;;8.70;99.90;;;;;;5004360;28;20714;-72
2021/11/12 10:10:56;;;;;;;33.43;20.80;;;8.70;99.90;;;;;;5016994;28;20198;-71
2021/11/12 10:13:27;;;;;;;34.67;21.13;;;8.70;99.90;;;;;;5010377;28;20903;-71
2021/11/12 10:16:02;;;;;;;35.20;20.47;;;8.70;99.90;;;;;;5014385;28;20231;-71
2021/11/12 10:18:30;;;;;;;32.07;19.80;;;8.60;99.90;;;;;;5013628;28;20193;-71
2021/11/12 10:20:58;;;;;;;30.07;18.93;;;8.70;99.90;;;;;;5014194;28;20205;-72
2021/11/12 10:23:30;;;;;;;27.87;18.47;;;8.70;99.90;;;;;;5015500;28;20253;-71
2021/11/12 10:26:06;;;;;;;25.33;17.10;;;8.70;99.90;;;;;;5016416;28;20214;-72
2021/11/12 10:28:36;;;;;;;26.00;17.97;;;8.70;99.90;;;;;;5004284;28;20233;-72
2021/11/12 10:31:11;;;;;;;24.07;17.00;;;8.70;99.90;;;;;;5026645;28;20225;-71
2021/11/12 10:33:39;;;;;;;24.10;17.00;;;8.70;99.90;;;;;;5023183;28;20667;-71
2021/11/12 10:36:07;;;;;;;24.57;16.27;;;8.70;99.90;;;;;;5015927;28;20304;-71
2021/11/12 10:38:40;;;;;;;25.80;16.97;;;8.80;99.90;;;;;;5013665;28;20579;-72
2021/11/12 10:41:21;;;;;;;21.33;14.53;;;8.80;99.90;;;;;;5012829;28;20688;-72
2021/11/12 10:43:48;;;;;;;18.83;14.30;;;8.70;99.90;;;;;;5012361;28;20194;-72
2021/11/12 10:46:15;;;;;;;19.30;14.60;;;8.80;99.90;;;;;;5013831;28;20213;-72
2021/11/12 10:48:42;;;;;;;21.40;14.73;;;8.70;99.90;;;;;;5012664;28;20647;-72
2021/11/12 10:51:18;;;;;;;22.23;15.27;;;8.70;99.90;;;;;;5004201;28;20197;-72
2021/11/12 10:53:49;;;;;;;19.73;14.13;;;8.70;99.90;;;;;;5014286;28;20212;-72
2021/11/12 10:56:15;;;;;;;21.67;14.30;;;8.70;99.90;;;;;;5017730;28;20190;-72
2021/11/12 10:59:00;;;;;;;18.90;14.07;;;8.80;99.90;;;;;;5015881;28;20300;-72
2021/11/12 11:01:35;;;;;;;22.00;15.40;;;8.80;99.90;;;;;;5013492;28;20692;-71
2021/11/12 11:04:18;;;;;;;20.60;14.40;;;8.80;99.90;;;;;;5018223;28;20201;-71
2021/11/12 11:06:44;;;;;;;21.63;13.77;;;8.80;99.90;;;;;;5006836;28;20225;-72
2021/11/12 11:09:11;;;;;;;19.90;13.97;;;8.80;99.90;;;;;;5007622;28;20254;-71
2021/11/12 11:11:43;;;;;;;17.10;12.77;;;8.80;99.90;;;;;;5007203;28;20732;-72
2021/11/12 11:14:30;;;;;;;19.33;13.27;;;8.80;99.90;;;;;;5015416;28;20586;-72
2021/11/12 11:16:58;;;;;;;18.47;12.93;;;8.80;99.90;;;;;;5006912;28;20233;-72
2021/11/12 11:19:36;;;;;;;18.83;13.10;;;8.80;99.90;;;;;;5007236;28;20742;-72
2021/11/12 11:22:07;;;;;;;19.10;14.17;;;8.80;99.90;;;;;;5007215;28;20262;-71
2021/11/12 11:24:34;;;;;;;20.03;13.00;;;8.70;99.90;;;;;;5007311;28;20198;-72
2021/11/12 11:27:03;;;;;;;17.77;13.23;;;8.80;99.90;;;;;;5006845;28;20279;-72
2021/11/12 11:29:30;;;;;;;19.60;13.93;;;8.80;99.90;;;;;;5007108;28;20206;-71
2021/11/12 11:31:58;;;;;;;20.70;14.50;;;8.80;99.90;;;;;;5007066;28;20233;-72
2021/11/12 11:34:25;;;;;;;18.43;12.97;;;8.90;99.90;;;;;;5007142;28;20297;-71
2021/11/12 11:36:56;;;;;;;19.87;13.97;;;8.90;99.90;;;;;;5007016;28;20251;-71
2021/11/12 11:39:24;;;;;;;18.23;13.80;;;8.90;99.90;;;;;;5007150;28;20202;-71
2021/11/12 11:41:51;;;;;;;17.83;13.43;;;8.90;99.90;;;;;;5006759;28;20716;-72
2021/11/12 11:44:19;;;;;;;17.67;13.83;;;8.90;99.90;;;;;;5006844;28;20229;-71
2021/11/12 11:46:49;;;;;;;16.43;13.23;;;9.00;99.90;;;;;;5006683;28;20620;-78
2021/11/12 11:49:17;;;;;;;17.17;14.00;;;9.00;99.90;;;;;;5007335;28;20229;-78
2021/11/12 11:51:50;;;;;;;17.17;13.63;;;9.00;99.90;;;;;;5007083;28;20232;-78
2021/11/12 11:54:21;;;;;;;20.33;13.83;;;9.10;99.90;;;;;;5006867;28;20766;-72
2021/11/12 11:56:49;;;;;;;15.57;12.77;;;9.10;99.90;;;;;;5006556;28;20190;-72
2021/11/12 11:59:23;;;;;;;15.03;13.00;;;9.20;99.90;;;;;;5016666;28;20257;-71
2021/11/12 12:01:52;;;;;;;16.97;12.33;;;9.20;99.90;;;;;;5020581;28;20252;-71
2021/11/12 12:04:30;;;;;;;14.97;11.97;;;9.20;99.90;;;;;;5017943;28;20200;-71
2021/11/12 12:07:36;;;;;;;14.13;11.50;;;9.30;99.90;;;;;;5006305;28;20198;-72
2021/11/12 12:10:17;;;;;;;12.43;11.10;;;9.30;99.90;;;;;;5006180;28;20251;-72
2021/11/12 12:12:48;;;;;;;14.40;11.03;;;9.40;99.90;;;;;;5006168;28;20204;-71
2021/11/12 12:15:48;;;;;;;15.27;11.20;;;9.40;99.90;;;;;;5006557;28;20194;-72
2021/11/12 12:18:27;;;;;;;13.53;10.40;;;9.40;99.90;;;;;;5006513;28;20210;-72
2021/11/12 12:34:13;;;;;;;12.23;10.60;;;9.30;99.90;;;;;;5000276;28;20361;-72
2021/11/12 12:39:52;;;;;;;15.50;10.80;;;9.30;99.90;;;;;;5039811;28;20201;-72
2021/11/12 13:21:56;;;;;;;11.27;9.30;;;8.90;99.90;;;;;;5017458;28;20197;-78
2021/11/12 13:24:31;;;;;;;10.33;9.03;;;8.90;99.90;;;;;;5022511;28;20638;-72
2021/11/12 13:27:02;;;;;;;8.77;7.73;;;8.90;99.90;;;;;;5021477;28;20220;-72
2021/11/12 13:29:29;;;;;;;9.07;7.50;;;8.90;99.90;;;;;;5022060;28;20608;-72
2021/11/12 13:32:02;;;;;;;8.63;7.83;;;8.90;99.90;;;;;;5021945;28;20197;-72
2021/11/12 13:34:41;;;;;;;8.07;7.13;;;8.90;99.90;;;;;;5021436;28;20313;-73
2021/11/12 13:37:14;;;;;;;8.23;7.43;;;8.80;99.90;;;;;;5017028;28;20238;-72
2021/11/12 13:39:41;;;;;;;9.70;7.20;;;8.90;99.90;;;;;;5016008;28;20225;-73
2021/11/12 13:42:09;;;;;;;8.13;7.33;;;8.80;99.90;;;;;;5022467;28;20293;-73
2021/11/12 13:44:38;;;;;;;8.33;7.53;;;8.80;99.90;;;;;;5022250;28;20223;-73
2021/11/12 13:47:08;;;;;;;8.10;7.30;;;8.90;99.90;;;;;;5021596;28;20208;-72
2021/11/12 13:49:39;;;;;;;9.93;8.57;;;8.90;99.90;;;;;;5020299;28;20236;-72
2021/11/12 13:52:08;;;;;;;7.67;6.93;;;8.90;99.90;;;;;;5022038;28;20249;-72
2021/11/12 13:54:40;;;;;;;8.13;7.33;;;8.90;99.90;;;;;;5022225;28;20246;-72
2021/11/12 13:57:12;;;;;;;7.90;7.10;;;8.90;99.90;;;;;;5022924;28;20437;-72
2021/11/12 13:59:50;;;;;;;7.87;7.17;;;8.90;99.90;;;;;;5022139;28;20209;-72
2021/11/12 14:02:17;;;;;;;8.80;7.33;;;8.80;99.90;;;;;;5021877;28;20193;-72
2021/11/12 14:04:45;;;;;;;7.43;6.53;;;8.90;99.90;;;;;;5021940;28;20224;-72
2021/11/12 14:07:16;;;;;;;7.83;7.03;;;8.90;99.90;;;;;;5021179;28;20212;-72
2021/11/12 14:09:43;;;;;;;7.63;6.93;;;8.90;99.90;;;;;;5021126;28;20723;-73
2021/11/12 14:12:12;;;;;;;8.60;6.80;;;8.80;99.90;;;;;;5022302;28;20197;-71
2021/11/12 14:14:42;;;;;;;7.50;6.53;;;8.80;99.90;;;;;;5018643;28;20953;-72
2021/11/12 14:17:21;;;;;;;6.80;6.10;;;8.80;99.90;;;;;;5022128;28;20204;-72
2021/11/12 14:19:58;;;;;;;6.60;6.00;;;8.80;99.90;;;;;;5020655;28;20229;-72
2021/11/12 14:22:43;;;;;;;6.37;5.77;;;8.80;99.90;;;;;;5021047;28;20200;-72
2021/11/12 14:28:11;;;;;;;6.60;5.97;;;8.80;99.90;;;;;;5017451;28;20224;-71
2021/11/12 14:31:09;;;;;;;6.40;5.80;;;8.80;99.90;;;;;;5020417;28;20227;-72
2021/11/12 14:33:47;;;;;;;6.43;5.93;;;8.80;99.90;;;;;;5021259;28;20244;-71
2021/11/12 14:39:22;;;;;;;6.47;5.97;;;8.80;99.90;;;;;;5006277;28;20224;-72
2021/11/12 14:45:07;;;;;;;7.13;6.43;;;8.80;99.90;;;;;;5010310;28;20201;-71
2021/11/12 14:47:43;;;;;;;6.07;5.57;;;8.80;99.90;;;;;;5008896;28;20193;-71
2021/11/12 14:50:24;;;;;;;6.30;5.80;;;8.80;99.90;;;;;;5015533;28;20982;-71
2021/11/12 14:53:15;;;;;;;7.57;6.80;;;8.80;99.90;;;;;;5020027;28;20292;-71
2021/11/12 14:55:43;;;;;;;7.30;6.60;;;8.80;99.90;;;;;;5020527;28;20200;-72
2021/11/12 14:58:15;;;;;;;8.37;6.90;;;8.80;99.90;;;;;;5020708;28;20260;-72
2021/11/12 15:00:42;;;;;;;7.10;6.40;;;8.70;99.90;;;;;;5019103;28;20228;-71
2021/11/12 15:03:09;;;;;;;8.17;7.13;;;8.70;99.90;;;;;;5020740;28;20201;-71
2021/11/12 15:05:39;;;;;;;7.87;7.07;;;8.70;99.90;;;;;;5020367;28;20220;-71
2021/11/12 15:08:11;;;;;;;7.77;6.97;;;8.70;99.90;;;;;;5020883;28;20202;-71
2021/11/12 15:10:39;;;;;;;8.07;7.27;;;8.70;99.90;;;;;;5020383;28;20201;-72
2021/11/12 15:13:06;;;;;;;8.07;7.27;;;8.70;99.90;;;;;;5020775;28;20335;-72
2021/11/12 15:15:33;;;;;;;9.10;7.90;;;8.60;99.90;;;;;;5020991;28;20265;-72
2021/11/12 15:18:04;;;;;;;8.50;7.60;;;8.60;99.90;;;;;;5021195;28;20201;-71
2021/11/12 15:20:31;;;;;;;9.23;7.93;;;8.60;99.90;;;;;;5021148;28;20266;-71
2021/11/12 15:23:23;;;;;;;8.97;8.07;;;8.60;99.90;;;;;;5021472;28;20572;-71
2021/11/12 15:26:07;;;;;;;8.93;8.07;;;8.60;99.90;;;;;;5019805;28;20205;-71
2021/11/12 15:28:47;;;;;;;10.07;8.97;;;8.60;99.90;;;;;;5020274;28;20213;-71
2021/11/12 15:31:18;;;;;;;10.90;8.90;;;8.60;99.90;;;;;;5021213;28;20196;-71
2021/11/12 15:33:51;;;;;;;9.97;8.67;;;8.60;99.90;;;;;;5021376;28;20189;-71
2021/11/12 15:36:18;;;;;;;10.70;8.63;;;8.60;99.90;;;;;;5020748;28;20647;-71
2021/11/12 15:38:49;;;;;;;10.50;8.93;;;8.50;99.90;;;;;;5021595;28;20212;-71
2021/11/12 15:41:29;;;;;;;11.33;8.97;;;8.60;99.90;;;;;;5023840;28;20254;-71
2021/11/12 15:43:58;;;;;;;11.30;8.63;;;8.50;99.90;;;;;;5023576;28;21027;-71
2021/11/12 15:46:26;;;;;;;11.50;8.63;;;8.60;99.90;;;;;;5023874;28;20240;-71
2021/11/12 15:48:53;;;;;;;13.27;10.40;;;8.50;99.90;;;;;;5021011;28;20746;-71
2021/11/12 15:51:36;;;;;;;13.40;9.97;;;8.50;99.90;;;;;;5022559;28;20225;-70
2021/11/12 15:54:17;;;;;;;14.47;10.37;;;8.50;99.90;;;;;;5022439;28;20884;-71
2021/11/12 15:59:53;;;;;;;12.47;10.23;;;8.50;99.90;;;;;;4987156;28;20201;-70
2021/11/12 16:02:36;;;;;;;13.20;10.07;;;8.50;99.90;;;;;;5023476;28;20201;-70
2021/11/12 16:05:28;;;;;;;13.17;11.03;;;8.50;99.90;;;;;;5022037;28;20227;-70
2021/11/12 16:08:06;;;;;;;13.43;10.13;;;8.50;99.90;;;;;;5022623;28;20249;-71
2021/11/12 16:13:19;;;;;;;13.97;9.87;;;8.50;99.90;;;;;;5016543;28;20622;-74
2021/11/12 16:15:58;;;;;;;13.97;10.30;;;8.50;99.90;;;;;;5016616;28;20196;-74
2021/11/12 16:18:33;;;;;;;14.53;10.47;;;8.50;99.90;;;;;;5017573;28;20193;-74
2021/11/12 16:24:08;;;;;;;11.60;9.73;;;8.50;99.90;;;;;;5003313;28;20573;-71
2021/11/12 16:26:38;;;;;;;10.40;9.03;;;8.50;99.90;;;;;;5016804;28;20231;-71
2021/11/12 16:29:26;;;;;;;14.53;10.30;;;8.50;99.90;;;;;;5015312;28;20694;-71
2021/11/12 16:31:53;;;;;;;11.17;9.83;;;8.50;99.90;;;;;;5015088;28;20715;-71
2021/11/12 16:34:21;;;;;;;12.87;10.03;;;8.50;99.90;;;;;;5016831;28;20290;-71
2021/11/12 16:36:53;;;;;;;13.13;10.33;;;8.50;99.90;;;;;;5017657;28;20291;-71
2021/11/12 16:39:25;;;;;;;11.60;9.10;;;8.40;99.90;;;;;;5017243;28;20200;-71